Waipahu, Hawaii
Current Conditions -  °F | °C
As of 9:53 PM on Wednesday 28 Jan 2015 (Local Time) from PHNL Reporting Station
Broken Clouds Broken Clouds  
Wind Chill: 75°   Ceiling: 6000
Heat Index: 75°   Visibility: 10mi
Dew Point: 67°   Wind: 5mph
Humidity: 76%   Direction: 170°S
Pressure: 29.94"   Gusts: NA
Location:  21.39°N, 158°W
Report Text: PHNL 290753Z 17004KT 10SM SCT025 SCT037 BKN060 24/19 A2994 RMK AO2 SLP138 T02390194
Loading
Personal Weather Stations






























Interactive Weather Map New forecast layout! Learn more

10-Day Weather Forecast

Advertisements
Track Severe Weather on mobile